Airfield :
LOGIN :

Register | Disclaimer

   EN    FR    IT 

 










Legend :    VFR   Marginal VFR   IFR   Intensive IFR   Very Intensive IFR
Visi :
Ceiling :
>= 8 km
>= 3000ft
5 to 8 km
1000 to 3000 ft
1500m to 5 km
500 to 1000 ft
800 to 1500m
200 to 500 ft
< 800m
< 200 ft
Symbols :   Thunderstorms  Fog  Heavy snow  Heavy precipitations  Wind > 20 kt
SIGMETs :     Misc.  Thunderstorms  Icing  Turbulence  Mountain Waves  Volcanic Ashes






- Airport Elevation : 20 ft


EBFN - Koksijde

CURRENT METAR :
  • 300955Z 21008KT 9999 FEW025 15/09 Q1010 BLU BLU

EXPIRED METARs :
  • 300925Z 22008KT 9999 FEW025 15/10 Q1010 BLU BLU
  • 300855Z 22005KT 9999 FEW020 14/10 Q1010 BLU BLU
  • 300825Z 22006KT 9999 FEW020 13/09 Q1009 BLU BLU
  • 300755Z 21005KT 9999 FEW020 12/09 Q1009 BLU BLU
  • 300725Z 21005KT 9999 FEW020 10/08 Q1009 BLU BLU

TAF TAF EBFN
Valid from the 30 at 10:00 until the 30 at 19:00 UTC


300841Z 3010/3019 22013KT 9999 FEW025
BECMG 3013/3015 21018G28KT SCT035 SCT060



MET'MAP, your aeronautical weather chart ! - Copyright ORBIFLY December 2007 - Disclaimer

ORBIFLY MET'MAP TEAM :

Programming & Development : Alexandra Zaïnal
Original concept : Baudouin d'Aumeries
Technical & hardware support : Manuel Goepfert
Assistance : Marc-Olivier Méhu




SOURCES & CREDITS :

   NOAA